Josephine Prima — CQDX — position and weather

sailwx.info

Track history (hours):
 
Tides and Currents Weather Stations Pressure Air Temp Water Temp Dewpoint Dewpoint Depression Visibility Wind Speed Wind Dir Waves Ship Positions

Josephine Prima

Last reported at 2018-Jan-21 10:01 UTC. Time now 2018-Feb-21 13:29 UTC.
Position N 36°43' E 026°31'.
Warning: this ship's position is 31 days out of date.

Length 106 m; draft 4.5 m.

Type: Cargo ship. MMSI: 255805800.

Date/timePositionNaut miles runAvg speedWind from/ knotsBaromVisibWave heightAir tempDewpointWater temp
2018-Jan-21 10:01N 36°43' E 026°31'0 7.2
2018-Jan-21 10:00N 36°43' E 026°31'7 7.6
2018-Jan-21 09:07N 36°48' E 026°25'1 7.8
2018-Jan-21 09:00N 36°49' E 026°24'6 7.5
2018-Jan-21 08:15N 36°52' E 026°19'2 7.8
2018-Jan-21 08:00N 36°54' E 026°17'4 7.8
2018-Jan-21 07:27N 36°57' E 026°13'3 7.7
2018-Jan-21 07:01N 36°60' E 026°11'4 7.7
2018-Jan-21 06:31N 37°03' E 026°09'4 7.9
2018-Jan-21 06:00N 37°06' E 026°06'4 8.6
2018-Jan-21 05:30N 37°10' E 026°04'5 9.1
2018-Jan-21 05:00N 37°14' E 026°01'5 9.5
2018-Jan-21 04:31N 37°18' E 025°58'5 9.1
2018-Jan-21 04:01N 37°22' E 025°55'5 9.0
2018-Jan-21 03:31N 37°26' E 025°53'5 9.2
2018-Jan-21 02:58N 37°31' E 025°51'228 6.4
2018-Jan-19 15:31N 40°25' E 029°01'3 2.1
2018-Jan-19 14:13N 40°25' E 029°05'0 0.0
2018-Jan-19 13:43N 40°25' E 029°05'0 0.0
2018-Jan-19 09:55N 40°25' E 029°05'0 0.0
2018-Jan-19 06:26N 40°25' E 029°05'0 0.0
2018-Jan-19 04:56N 40°25' E 029°05'0 0.0
2018-Jan-19 04:02N 40°25' E 029°05'0 0.0
2018-Jan-19 03:50N 40°25' E 029°05'0 0.0
2018-Jan-19 03:26N 40°25' E 029°05'0 0.0
2018-Jan-19 02:44N 40°25' E 029°05'0 0.0
2018-Jan-19 00:50N 40°25' E 029°05'0 0.0
2018-Jan-18 22:38N 40°25' E 029°05'0 0.0
2018-Jan-18 16:38N 40°25' E 029°05'0 0.0
2018-Jan-18 12:02N 40°25' E 029°05'0 0.0
2018-Jan-18 11:38N 40°25' E 029°05'0 0.0
2018-Jan-18 11:14N 40°25' E 029°05'0 0.0
2018-Jan-18 10:50N 40°25' E 029°05'0 0.0
2018-Jan-18 10:20N 40°25' E 029°05'0 0.0
2018-Jan-18 07:44N 40°25' E 029°05'0 0.0
2018-Jan-18 07:26N 40°25' E 029°05'0 0.0
2018-Jan-18 06:56N 40°25' E 029°05'0 0.0
2018-Jan-18 06:26N 40°25' E 029°05'0 0.0
2018-Jan-18 05:56N 40°25' E 029°05'0 0.0
2018-Jan-18 05:26N 40°25' E 029°05'0 0.0
2018-Jan-18 04:56N 40°25' E 029°05'0 0.0
2018-Jan-18 04:14N 40°25' E 029°05'0 0.0
2018-Jan-18 03:50N 40°25' E 029°05'0 0.0
2018-Jan-18 03:20N 40°25' E 029°05'0 0.0
2018-Jan-18 02:44N 40°25' E 029°05'0 0.0
2018-Jan-18 02:26N 40°25' E 029°05'0 0.0
2018-Jan-18 01:50N 40°25' E 029°05'0 0.0
2018-Jan-18 01:26N 40°25' E 029°05'0 0.0
2018-Jan-18 00:56N 40°25' E 029°05'0 0.0
2018-Jan-17 23:50N 40°25' E 029°05'  
2018-Jan-12 02:35N 37°48' E 016°02'1 9.6
2018-Jan-12 02:28N 37°48' E 016°00'5 9.5
2018-Jan-12 01:59N 37°49' E 015°55'5 9.4
2018-Jan-12 01:30N 37°51' E 015°49'5 9.2
2018-Jan-12 00:59N 37°52' E 015°43'4 8.9
2018-Jan-12 00:30N 37°53' E 015°38'5 9.1
2018-Jan-12 00:00N 37°57' E 015°35'6 9.6
2018-Jan-11 23:24N 38°02' E 015°33'410.8
2018-Jan-11 23:00N 38°07' E 015°35'611.0
2018-Jan-11 22:28N 38°12' E 015°36'5 8.8
2018-Jan-11 21:51N 38°16' E 015°40'3 9.5
2018-Jan-11 21:30N 38°20' E 015°40'5 9.2
2018-Jan-11 20:59N 38°24' E 015°37'5 9.5
2018-Jan-11 20:30N 38°28' E 015°34'6 9.5
2018-Jan-11 19:50N 38°33' E 015°29'3 9.0
2018-Jan-11 19:26N 38°36' E 015°26'5 9.0
2018-Jan-11 18:54N 38°38' E 015°21'5 9.2
2018-Jan-11 18:25N 38°41' E 015°16'  
Track history (hours):
 
Tides and Currents Weather Stations Pressure Air Temp Water Temp Dewpoint Dewpoint Depression Visibility Wind Speed Wind Dir Waves Ship Positions

Josephine Prima

Last reported at 2018-Jan-21 10:01 UTC. Time now 2018-Feb-21 13:29 UTC.
Position N 36°43' E 026°31'.
Warning: this ship's position is 31 days out of date.

Length 106 m; draft 4.5 m.

Type: Cargo ship. MMSI: 255805800.

Date/timePositionNaut miles runAvg speedWind from/ knotsBaromVisibWave heightAir tempDewpointWater temp
2018-Jan-21 10:01N 36°43' E 026°31'0 7.2
2018-Jan-21 10:00N 36°43' E 026°31'7 7.6
2018-Jan-21 09:07N 36°48' E 026°25'1 7.8
2018-Jan-21 09:00N 36°49' E 026°24'6 7.5
2018-Jan-21 08:15N 36°52' E 026°19'2 7.8
2018-Jan-21 08:00N 36°54' E 026°17'4 7.8
2018-Jan-21 07:27N 36°57' E 026°13'3 7.7
2018-Jan-21 07:01N 36°60' E 026°11'4 7.7
2018-Jan-21 06:31N 37°03' E 026°09'4 7.9
2018-Jan-21 06:00N 37°06' E 026°06'4 8.6
2018-Jan-21 05:30N 37°10' E 026°04'5 9.1
2018-Jan-21 05:00N 37°14' E 026°01'5 9.5
2018-Jan-21 04:31N 37°18' E 025°58'5 9.1
2018-Jan-21 04:01N 37°22' E 025°55'5 9.0
2018-Jan-21 03:31N 37°26' E 025°53'5 9.2
2018-Jan-21 02:58N 37°31' E 025°51'228 6.4
2018-Jan-19 15:31N 40°25' E 029°01'3 2.1
2018-Jan-19 14:13N 40°25' E 029°05'0 0.0
2018-Jan-19 13:43N 40°25' E 029°05'0 0.0
2018-Jan-19 09:55N 40°25' E 029°05'0 0.0
2018-Jan-19 06:26N 40°25' E 029°05'0 0.0
2018-Jan-19 04:56N 40°25' E 029°05'0 0.0
2018-Jan-19 04:02N 40°25' E 029°05'0 0.0
2018-Jan-19 03:50N 40°25' E 029°05'0 0.0
2018-Jan-19 03:26N 40°25' E 029°05'0 0.0
2018-Jan-19 02:44N 40°25' E 029°05'0 0.0
2018-Jan-19 00:50N 40°25' E 029°05'0 0.0
2018-Jan-18 22:38N 40°25' E 029°05'0 0.0
2018-Jan-18 16:38N 40°25' E 029°05'0 0.0
2018-Jan-18 12:02N 40°25' E 029°05'0 0.0
2018-Jan-18 11:38N 40°25' E 029°05'0 0.0
2018-Jan-18 11:14N 40°25' E 029°05'0 0.0
2018-Jan-18 10:50N 40°25' E 029°05'0 0.0
2018-Jan-18 10:20N 40°25' E 029°05'0 0.0
2018-Jan-18 07:44N 40°25' E 029°05'0 0.0
2018-Jan-18 07:26N 40°25' E 029°05'0 0.0
2018-Jan-18 06:56N 40°25' E 029°05'0 0.0
2018-Jan-18 06:26N 40°25' E 029°05'0 0.0
2018-Jan-18 05:56N 40°25' E 029°05'0 0.0
2018-Jan-18 05:26N 40°25' E 029°05'0 0.0
2018-Jan-18 04:56N 40°25' E 029°05'0 0.0
2018-Jan-18 04:14N 40°25' E 029°05'0 0.0
2018-Jan-18 03:50N 40°25' E 029°05'0 0.0
2018-Jan-18 03:20N 40°25' E 029°05'0 0.0
2018-Jan-18 02:44N 40°25' E 029°05'0 0.0
2018-Jan-18 02:26N 40°25' E 029°05'0 0.0
2018-Jan-18 01:50N 40°25' E 029°05'0 0.0
2018-Jan-18 01:26N 40°25' E 029°05'0 0.0
2018-Jan-18 00:56N 40°25' E 029°05'0 0.0
2018-Jan-17 23:50N 40°25' E 029°05'  
2018-Jan-12 02:35N 37°48' E 016°02'1 9.6
2018-Jan-12 02:28N 37°48' E 016°00'5 9.5
2018-Jan-12 01:59N 37°49' E 015°55'5 9.4
2018-Jan-12 01:30N 37°51' E 015°49'5 9.2
2018-Jan-12 00:59N 37°52' E 015°43'4 8.9
2018-Jan-12 00:30N 37°53' E 015°38'5 9.1
2018-Jan-12 00:00N 37°57' E 015°35'6 9.6
2018-Jan-11 23:24N 38°02' E 015°33'410.8
2018-Jan-11 23:00N 38°07' E 015°35'611.0
2018-Jan-11 22:28N 38°12' E 015°36'5 8.8
2018-Jan-11 21:51N 38°16' E 015°40'3 9.5
2018-Jan-11 21:30N 38°20' E 015°40'5 9.2
2018-Jan-11 20:59N 38°24' E 015°37'5 9.5
2018-Jan-11 20:30N 38°28' E 015°34'6 9.5
2018-Jan-11 19:50N 38°33' E 015°29'3 9.0
2018-Jan-11 19:26N 38°36' E 015°26'5 9.0
2018-Jan-11 18:54N 38°38' E 015°21'5 9.2
2018-Jan-11 18:25N 38°41' E 015°16'  

Dump ship's entire track history